sensor_id;sensor_type;location;lat;lon;timestamp;P1;durP1;ratioP1;P2;durP2;ratioP2
77085;SDS011;66014;53.134;18.006;2023-10-09T00:02:14;7.40;;;2.60;;
77085;SDS011;66014;53.134;18.006;2023-10-09T00:04:40;5.60;;;2.60;;
77085;SDS011;66014;53.134;18.006;2023-10-09T00:07:08;6.50;;;2.80;;
77085;SDS011;66014;53.134;18.006;2023-10-09T00:09:35;6.80;;;2.80;;
77085;SDS011;66014;53.134;18.006;2023-10-09T00:12:32;7.40;;;3.40;;
77085;SDS011;66014;53.134;18.006;2023-10-09T00:15:01;7.20;;;2.80;;
77085;SDS011;66014;53.134;18.006;2023-10-09T00:17:44;6.90;;;2.80;;
77085;SDS011;66014;53.134;18.006;2023-10-09T00:24:34;7.00;;;2.90;;
77085;SDS011;66014;53.134;18.006;2023-10-09T00:30:13;10.30;;;4.40;;
77085;SDS011;66014;53.134;18.006;2023-10-09T00:33:10;12.00;;;4.90;;
77085;SDS011;66014;53.134;18.006;2023-10-09T00:35:37;14.80;;;5.40;;
77085;SDS011;66014;53.134;18.006;2023-10-09T00:38:10;10.60;;;4.90;;
77085;SDS011;66014;53.134;18.006;2023-10-09T00:41:02;12.50;;;4.70;;
77085;SDS011;66014;53.134;18.006;2023-10-09T00:43:35;11.70;;;5.10;;
77085;SDS011;66014;53.134;18.006;2023-10-09T00:46:11;10.80;;;4.90;;
77085;SDS011;66014;53.134;18.006;2023-10-09T00:48:51;8.80;;;4.30;;
77085;SDS011;66014;53.134;18.006;2023-10-09T00:51:21;8.70;;;3.50;;
77085;SDS011;66014;53.134;18.006;2023-10-09T00:57:17;7.00;;;2.80;;
77085;SDS011;66014;53.134;18.006;2023-10-09T01:00:12;9.20;;;3.60;;
77085;SDS011;66014;53.134;18.006;2023-10-09T01:02:52;8.00;;;3.20;;
77085;SDS011;66014;53.134;18.006;2023-10-09T01:05:37;7.40;;;3.00;;
77085;SDS011;66014;53.134;18.006;2023-10-09T01:08:04;5.40;;;2.80;;
77085;SDS011;66014;53.134;18.006;2023-10-09T01:10:48;6.70;;;2.60;;
77085;SDS011;66014;53.134;18.006;2023-10-09T01:13:17;6.30;;;2.40;;
77085;SDS011;66014;53.134;18.006;2023-10-09T01:15:44;6.30;;;2.60;;
77085;SDS011;66014;53.134;18.006;2023-10-09T01:18:14;8.00;;;2.80;;
77085;SDS011;66014;53.134;18.006;2023-10-09T01:20:42;8.70;;;3.20;;
77085;SDS011;66014;53.134;18.006;2023-10-09T01:23:11;8.90;;;3.80;;
77085;SDS011;66014;53.134;18.006;2023-10-09T01:25:38;9.60;;;3.70;;
77085;SDS011;66014;53.134;18.006;2023-10-09T01:28:09;7.70;;;3.60;;
77085;SDS011;66014;53.134;18.006;2023-10-09T01:30:36;9.70;;;4.40;;
77085;SDS011;66014;53.134;18.006;2023-10-09T01:33:07;8.60;;;4.00;;
77085;SDS011;66014;53.134;18.006;2023-10-09T01:35:48;11.20;;;4.00;;
77085;SDS011;66014;53.134;18.006;2023-10-09T01:38:16;9.80;;;4.30;;
77085;SDS011;66014;53.134;18.006;2023-10-09T01:40:42;6.80;;;3.20;;
77085;SDS011;66014;53.134;18.006;2023-10-09T01:43:10;8.00;;;3.50;;
77085;SDS011;66014;53.134;18.006;2023-10-09T01:45:36;8.20;;;3.90;;
77085;SDS011;66014;53.134;18.006;2023-10-09T01:48:12;8.60;;;3.50;;
77085;SDS011;66014;53.134;18.006;2023-10-09T01:50:40;9.20;;;3.70;;
77085;SDS011;66014;53.134;18.006;2023-10-09T01:53:09;4.60;;;2.40;;
77085;SDS011;66014;53.134;18.006;2023-10-09T01:55:42;8.10;;;3.60;;
77085;SDS011;66014;53.134;18.006;2023-10-09T01:58:11;7.90;;;2.50;;
77085;SDS011;66014;53.134;18.006;2023-10-09T02:00:46;4.30;;;2.20;;
77085;SDS011;66014;53.134;18.006;2023-10-09T02:03:20;8.60;;;3.00;;
77085;SDS011;66014;53.134;18.006;2023-10-09T02:05:51;6.80;;;2.40;;
77085;SDS011;66014;53.134;18.006;2023-10-09T02:08:40;5.60;;;2.30;;
77085;SDS011;66014;53.134;18.006;2023-10-09T02:11:17;6.60;;;2.50;;
77085;SDS011;66014;53.134;18.006;2023-10-09T02:13:50;6.00;;;2.60;;
77085;SDS011;66014;53.134;18.006;2023-10-09T02:16:29;7.50;;;2.90;;
77085;SDS011;66014;53.134;18.006;2023-10-09T02:18:55;7.30;;;2.90;;
77085;SDS011;66014;53.134;18.006;2023-10-09T02:21:33;7.30;;;2.40;;
77085;SDS011;66014;53.134;18.006;2023-10-09T02:24:03;6.20;;;2.40;;
77085;SDS011;66014;53.134;18.006;2023-10-09T02:26:35;7.60;;;2.80;;
77085;SDS011;66014;53.134;18.006;2023-10-09T02:29:03;7.40;;;2.90;;
77085;SDS011;66014;53.134;18.006;2023-10-09T02:31:39;13.50;;;6.50;;
77085;SDS011;66014;53.134;18.006;2023-10-09T02:34:20;13.10;;;6.90;;
77085;SDS011;66014;53.134;18.006;2023-10-09T02:36:53;9.80;;;3.90;;
77085;SDS011;66014;53.134;18.006;2023-10-09T02:39:31;5.80;;;2.40;;
77085;SDS011;66014;53.134;18.006;2023-10-09T02:42:09;7.10;;;2.50;;
77085;SDS011;66014;53.134;18.006;2023-10-09T02:44:38;6.30;;;2.60;;
77085;SDS011;66014;53.134;18.006;2023-10-09T02:47:13;10.10;;;5.20;;
77085;SDS011;66014;53.134;18.006;2023-10-09T02:50:04;10.60;;;5.00;;
77085;SDS011;66014;53.134;18.006;2023-10-09T02:52:46;8.20;;;4.20;;
77085;SDS011;66014;53.134;18.006;2023-10-09T02:55:13;7.00;;;3.50;;
77085;SDS011;66014;53.134;18.006;2023-10-09T02:57:52;9.00;;;4.10;;
77085;SDS011;66014;53.134;18.006;2023-10-09T03:00:30;6.90;;;2.30;;
77085;SDS011;66014;53.134;18.006;2023-10-09T03:02:58;8.90;;;4.00;;
77085;SDS011;66014;53.134;18.006;2023-10-09T03:05:24;15.60;;;10.10;;
77085;SDS011;66014;53.134;18.006;2023-10-09T03:07:54;15.40;;;10.50;;
77085;SDS011;66014;53.134;18.006;2023-10-09T03:10:23;15.40;;;9.00;;
77085;SDS011;66014;53.134;18.006;2023-10-09T03:12:52;8.30;;;4.50;;
77085;SDS011;66014;53.134;18.006;2023-10-09T03:15:21;10.30;;;5.50;;
77085;SDS011;66014;53.134;18.006;2023-10-09T03:17:50;8.20;;;4.60;;
77085;SDS011;66014;53.134;18.006;2023-10-09T03:20:17;6.20;;;2.90;;
77085;SDS011;66014;53.134;18.006;2023-10-09T03:22:48;8.40;;;5.90;;
77085;SDS011;66014;53.134;18.006;2023-10-09T03:25:15;4.80;;;3.00;;
77085;SDS011;66014;53.134;18.006;2023-10-09T03:27:42;8.00;;;4.00;;
77085;SDS011;66014;53.134;18.006;2023-10-09T03:30:16;5.90;;;3.10;;
77085;SDS011;66014;53.134;18.006;2023-10-09T03:32:49;5.00;;;2.60;;
77085;SDS011;66014;53.134;18.006;2023-10-09T03:35:20;6.40;;;3.20;;
77085;SDS011;66014;53.134;18.006;2023-10-09T03:38:00;6.00;;;2.40;;
77085;SDS011;66014;53.134;18.006;2023-10-09T03:40:35;5.80;;;2.20;;
77085;SDS011;66014;53.134;18.006;2023-10-09T03:43:04;5.30;;;2.60;;
77085;SDS011;66014;53.134;18.006;2023-10-09T03:45:30;5.70;;;2.80;;
77085;SDS011;66014;53.134;18.006;2023-10-09T03:48:00;7.10;;;3.40;;
77085;SDS011;66014;53.134;18.006;2023-10-09T03:50:48;5.10;;;2.10;;
77085;SDS011;66014;53.134;18.006;2023-10-09T03:53:14;5.30;;;2.70;;
77085;SDS011;66014;53.134;18.006;2023-10-09T03:55:40;6.20;;;2.50;;
77085;SDS011;66014;53.134;18.006;2023-10-09T03:58:12;5.90;;;2.40;;
77085;SDS011;66014;53.134;18.006;2023-10-09T04:00:39;4.00;;;2.00;;
77085;SDS011;66014;53.134;18.006;2023-10-09T04:03:16;4.30;;;2.20;;
77085;SDS011;66014;53.134;18.006;2023-10-09T04:05:42;5.00;;;2.10;;
77085;SDS011;66014;53.134;18.006;2023-10-09T04:08:10;5.80;;;2.30;;
77085;SDS011;66014;53.134;18.006;2023-10-09T04:10:45;6.00;;;2.10;;
77085;SDS011;66014;53.134;18.006;2023-10-09T04:13:34;3.60;;;1.70;;
77085;SDS011;66014;53.134;18.006;2023-10-09T04:16:01;5.40;;;2.00;;
77085;SDS011;66014;53.134;18.006;2023-10-09T04:18:36;3.70;;;1.50;;
77085;SDS011;66014;53.134;18.006;2023-10-09T04:21:06;6.00;;;2.40;;
77085;SDS011;66014;53.134;18.006;2023-10-09T04:23:47;5.70;;;2.40;;
77085;SDS011;66014;53.134;18.006;2023-10-09T04:26:25;7.60;;;2.50;;
77085;SDS011;66014;53.134;18.006;2023-10-09T04:28:51;6.60;;;2.60;;
77085;SDS011;66014;53.134;18.006;2023-10-09T04:31:19;7.20;;;2.60;;
77085;SDS011;66014;53.134;18.006;2023-10-09T04:34:05;5.40;;;2.40;;
77085;SDS011;66014;53.134;18.006;2023-10-09T04:36:50;10.80;;;4.70;;
77085;SDS011;66014;53.134;18.006;2023-10-09T04:39:25;10.20;;;3.80;;
77085;SDS011;66014;53.134;18.006;2023-10-09T04:41:57;8.20;;;3.70;;
77085;SDS011;66014;53.134;18.006;2023-10-09T04:44:46;4.80;;;2.00;;
77085;SDS011;66014;53.134;18.006;2023-10-09T04:47:33;3.80;;;1.70;;
77085;SDS011;66014;53.134;18.006;2023-10-09T04:53:03;5.10;;;2.00;;
77085;SDS011;66014;53.134;18.006;2023-10-09T04:55:41;6.10;;;2.30;;
77085;SDS011;66014;53.134;18.006;2023-10-09T05:01:43;5.90;;;2.50;;
77085;SDS011;66014;53.134;18.006;2023-10-09T05:04:26;5.40;;;2.80;;
77085;SDS011;66014;53.134;18.006;2023-10-09T05:07:04;5.60;;;2.50;;
77085;SDS011;66014;53.134;18.006;2023-10-09T05:09:49;6.80;;;2.50;;
77085;SDS011;66014;53.134;18.006;2023-10-09T05:12:21;4.80;;;2.20;;
77085;SDS011;66014;53.134;18.006;2023-10-09T05:14:54;4.70;;;2.10;;
77085;SDS011;66014;53.134;18.006;2023-10-09T05:17:41;6.70;;;2.50;;
77085;SDS011;66014;53.134;18.006;2023-10-09T05:20:17;5.90;;;2.40;;
77085;SDS011;66014;53.134;18.006;2023-10-09T05:22:52;7.20;;;2.60;;
77085;SDS011;66014;53.134;18.006;2023-10-09T05:25:30;3.90;;;1.80;;
77085;SDS011;66014;53.134;18.006;2023-10-09T05:28:16;4.00;;;2.10;;
77085;SDS011;66014;53.134;18.006;2023-10-09T05:30:57;6.40;;;2.30;;
77085;SDS011;66014;53.134;18.006;2023-10-09T05:34:00;4.80;;;2.40;;
77085;SDS011;66014;53.134;18.006;2023-10-09T05:36:27;4.10;;;2.10;;
77085;SDS011;66014;53.134;18.006;2023-10-09T05:38:53;6.40;;;2.80;;
77085;SDS011;66014;53.134;18.006;2023-10-09T05:41:43;8.20;;;2.60;;
77085;SDS011;66014;53.134;18.006;2023-10-09T05:44:18;6.30;;;2.50;;
77085;SDS011;66014;53.134;18.006;2023-10-09T05:47:03;4.60;;;2.40;;
77085;SDS011;66014;53.134;18.006;2023-10-09T05:49:47;9.40;;;4.30;;
77085;SDS011;66014;53.134;18.006;2023-10-09T05:52:55;12.90;;;6.20;;
77085;SDS011;66014;53.134;18.006;2023-10-09T05:55:22;16.80;;;8.50;;
77085;SDS011;66014;53.134;18.006;2023-10-09T05:58:08;14.40;;;9.20;;
77085;SDS011;66014;53.134;18.006;2023-10-09T06:01:12;21.40;;;12.10;;
77085;SDS011;66014;53.134;18.006;2023-10-09T06:03:57;21.80;;;11.40;;
77085;SDS011;66014;53.134;18.006;2023-10-09T06:06:42;23.10;;;9.10;;
77085;SDS011;66014;53.134;18.006;2023-10-09T06:09:11;22.30;;;8.60;;
77085;SDS011;66014;53.134;18.006;2023-10-09T06:11:39;23.30;;;11.80;;
77085;SDS011;66014;53.134;18.006;2023-10-09T06:14:15;18.10;;;7.90;;
77085;SDS011;66014;53.134;18.006;2023-10-09T06:16:51;17.00;;;7.00;;
77085;SDS011;66014;53.134;18.006;2023-10-09T06:19:23;18.50;;;6.80;;
77085;SDS011;66014;53.134;18.006;2023-10-09T06:22:09;15.60;;;8.90;;
77085;SDS011;66014;53.134;18.006;2023-10-09T06:24:55;19.10;;;7.40;;
77085;SDS011;66014;53.134;18.006;2023-10-09T06:27:35;15.20;;;7.00;;
77085;SDS011;66014;53.134;18.006;2023-10-09T06:30:01;10.70;;;5.10;;
77085;SDS011;66014;53.134;18.006;2023-10-09T06:33:05;14.30;;;5.70;;
77085;SDS011;66014;53.134;18.006;2023-10-09T06:35:45;10.10;;;4.70;;
77085;SDS011;66014;53.134;18.006;2023-10-09T06:38:22;11.10;;;5.90;;
77085;SDS011;66014;53.134;18.006;2023-10-09T06:40:51;10.10;;;5.20;;
77085;SDS011;66014;53.134;18.006;2023-10-09T06:46:56;11.50;;;5.30;;
77085;SDS011;66014;53.134;18.006;2023-10-09T06:49:33;11.40;;;4.60;;
77085;SDS011;66014;53.134;18.006;2023-10-09T06:52:02;9.90;;;4.80;;
77085;SDS011;66014;53.134;18.006;2023-10-09T06:54:41;9.60;;;4.20;;
77085;SDS011;66014;53.134;18.006;2023-10-09T06:57:16;14.00;;;4.30;;
77085;SDS011;66014;53.134;18.006;2023-10-09T07:00:18;11.10;;;5.30;;
77085;SDS011;66014;53.134;18.006;2023-10-09T07:03:03;9.80;;;5.20;;
77085;SDS011;66014;53.134;18.006;2023-10-09T07:05:37;8.50;;;4.10;;
77085;SDS011;66014;53.134;18.006;2023-10-09T07:08:50;10.90;;;3.90;;
77085;SDS011;66014;53.134;18.006;2023-10-09T07:11:40;39.60;;;17.20;;
77085;SDS011;66014;53.134;18.006;2023-10-09T07:14:29;32.40;;;13.00;;
77085;SDS011;66014;53.134;18.006;2023-10-09T07:17:00;30.00;;;17.70;;
77085;SDS011;66014;53.134;18.006;2023-10-09T07:19:43;18.80;;;11.20;;
77085;SDS011;66014;53.134;18.006;2023-10-09T07:22:11;21.50;;;10.50;;
77085;SDS011;66014;53.134;18.006;2023-10-09T07:25:15;14.10;;;7.10;;
77085;SDS011;66014;53.134;18.006;2023-10-09T07:27:55;18.60;;;8.40;;
77085;SDS011;66014;53.134;18.006;2023-10-09T07:30:21;13.80;;;7.50;;
77085;SDS011;66014;53.134;18.006;2023-10-09T07:36:22;16.60;;;9.90;;
77085;SDS011;66014;53.134;18.006;2023-10-09T07:39:00;17.00;;;9.50;;
77085;SDS011;66014;53.134;18.006;2023-10-09T07:41:31;16.70;;;10.00;;
77085;SDS011;66014;53.134;18.006;2023-10-09T07:43:57;15.20;;;7.00;;
77085;SDS011;66014;53.134;18.006;2023-10-09T07:46:46;15.60;;;7.20;;
77085;SDS011;66014;53.134;18.006;2023-10-09T07:49:41;13.70;;;8.20;;
77085;SDS011;66014;53.134;18.006;2023-10-09T07:52:07;16.50;;;8.00;;
77085;SDS011;66014;53.134;18.006;2023-10-09T07:54:33;15.90;;;8.20;;
77085;SDS011;66014;53.134;18.006;2023-10-09T07:57:01;23.10;;;10.60;;
77085;SDS011;66014;53.134;18.006;2023-10-09T07:59:42;27.20;;;14.80;;
77085;SDS011;66014;53.134;18.006;2023-10-09T08:02:20;25.30;;;13.00;;
77085;SDS011;66014;53.134;18.006;2023-10-09T08:04:58;17.90;;;9.60;;
77085;SDS011;66014;53.134;18.006;2023-10-09T08:07:44;18.40;;;10.00;;
77085;SDS011;66014;53.134;18.006;2023-10-09T08:10:55;22.50;;;9.70;;
77085;SDS011;66014;53.134;18.006;2023-10-09T08:13:39;20.60;;;9.50;;
77085;SDS011;66014;53.134;18.006;2023-10-09T08:23:19;22.20;;;9.60;;
77085;SDS011;66014;53.134;18.006;2023-10-09T08:26:02;28.20;;;8.70;;
77085;SDS011;66014;53.134;18.006;2023-10-09T08:28:54;17.60;;;7.60;;
77085;SDS011;66014;53.134;18.006;2023-10-09T08:31:40;20.60;;;7.30;;
77085;SDS011;66014;53.134;18.006;2023-10-09T08:34:15;17.20;;;6.60;;
77085;SDS011;66014;53.134;18.006;2023-10-09T08:36:51;10.90;;;4.60;;
77085;SDS011;66014;53.134;18.006;2023-10-09T08:39:18;11.30;;;4.30;;
77085;SDS011;66014;53.134;18.006;2023-10-09T08:41:51;23.70;;;7.40;;
77085;SDS011;66014;53.134;18.006;2023-10-09T08:44:19;12.20;;;4.80;;
77085;SDS011;66014;53.134;18.006;2023-10-09T08:46:49;15.00;;;4.90;;
77085;SDS011;66014;53.134;18.006;2023-10-09T08:49:16;16.00;;;4.90;;
77085;SDS011;66014;53.134;18.006;2023-10-09T08:51:43;9.20;;;3.70;;
77085;SDS011;66014;53.134;18.006;2023-10-09T08:54:11;8.80;;;4.00;;
77085;SDS011;66014;53.134;18.006;2023-10-09T08:56:40;18.10;;;6.00;;
77085;SDS011;66014;53.134;18.006;2023-10-09T08:59:16;11.50;;;4.50;;
77085;SDS011;66014;53.134;18.006;2023-10-09T09:01:47;17.70;;;5.80;;
77085;SDS011;66014;53.134;18.006;2023-10-09T09:04:37;20.40;;;6.60;;
77085;SDS011;66014;53.134;18.006;2023-10-09T09:07:05;12.50;;;4.60;;
77085;SDS011;66014;53.134;18.006;2023-10-09T09:09:32;9.80;;;4.50;;
77085;SDS011;66014;53.134;18.006;2023-10-09T09:12:00;17.10;;;6.50;;
77085;SDS011;66014;53.134;18.006;2023-10-09T09:14:35;14.50;;;5.30;;
77085;SDS011;66014;53.134;18.006;2023-10-09T09:17:03;8.50;;;4.00;;
77085;SDS011;66014;53.134;18.006;2023-10-09T09:19:31;9.40;;;3.70;;
77085;SDS011;66014;53.134;18.006;2023-10-09T09:21:58;8.70;;;3.70;;
77085;SDS011;66014;53.134;18.006;2023-10-09T09:24:40;9.50;;;3.60;;
77085;SDS011;66014;53.134;18.006;2023-10-09T09:27:43;10.30;;;3.90;;
77085;SDS011;66014;53.134;18.006;2023-10-09T09:30:25;7.40;;;4.20;;
77085;SDS011;66014;53.134;18.006;2023-10-09T09:36:07;6.10;;;3.00;;
77085;SDS011;66014;53.134;18.006;2023-10-09T09:38:33;10.70;;;4.60;;
77085;SDS011;66014;53.134;18.006;2023-10-09T09:41:17;7.70;;;3.30;;
77085;SDS011;66014;53.134;18.006;2023-10-09T09:43:56;12.20;;;3.40;;
77085;SDS011;66014;53.134;18.006;2023-10-09T09:46:32;8.80;;;3.80;;
77085;SDS011;66014;53.134;18.006;2023-10-09T09:49:00;8.80;;;3.90;;
77085;SDS011;66014;53.134;18.006;2023-10-09T09:51:29;7.20;;;3.10;;
77085;SDS011;66014;53.134;18.006;2023-10-09T09:54:01;10.30;;;3.20;;
77085;SDS011;66014;53.134;18.006;2023-10-09T09:56:28;9.10;;;5.20;;
77085;SDS011;66014;53.134;18.006;2023-10-09T09:58:57;9.50;;;4.50;;
77085;SDS011;66014;53.134;18.006;2023-10-09T10:01:30;9.10;;;3.20;;
77085;SDS011;66014;53.134;18.006;2023-10-09T10:04:07;6.80;;;3.20;;
77085;SDS011;66014;53.134;18.006;2023-10-09T10:06:43;7.80;;;3.90;;
77085;SDS011;66014;53.134;18.006;2023-10-09T10:09:19;7.90;;;3.70;;
77085;SDS011;66014;53.134;18.006;2023-10-09T10:12:13;11.20;;;4.30;;
77085;SDS011;66014;53.134;18.006;2023-10-09T10:14:56;9.10;;;3.80;;
77085;SDS011;66014;53.134;18.006;2023-10-09T10:20:25;10.80;;;4.60;;
77085;SDS011;66014;53.134;18.006;2023-10-09T10:25:45;8.10;;;4.30;;
77085;SDS011;66014;53.134;18.006;2023-10-09T10:28:27;8.40;;;3.20;;
77085;SDS011;66014;53.134;18.006;2023-10-09T10:31:08;6.90;;;3.20;;
77085;SDS011;66014;53.134;18.006;2023-10-09T10:48:35;8.90;;;3.60;;
77085;SDS011;66014;53.134;18.006;2023-10-09T10:51:06;9.90;;;3.30;;
77085;SDS011;66014;53.134;18.006;2023-10-09T10:53:52;7.50;;;3.30;;
77085;SDS011;66014;53.134;18.006;2023-10-09T10:56:39;8.50;;;3.30;;
77085;SDS011;66014;53.134;18.006;2023-10-09T10:59:12;7.20;;;3.40;;
77085;SDS011;66014;53.134;18.006;2023-10-09T11:05:32;8.40;;;3.60;;
77085;SDS011;66014;53.134;18.006;2023-10-09T11:14:52;6.90;;;3.40;;
77085;SDS011;66014;53.134;18.006;2023-10-09T11:18:00;8.00;;;4.10;;
77085;SDS011;66014;53.134;18.006;2023-10-09T11:20:34;12.30;;;5.80;;
77085;SDS011;66014;53.134;18.006;2023-10-09T11:23:38;7.50;;;3.40;;
77085;SDS011;66014;53.134;18.006;2023-10-09T11:26:18;7.80;;;3.30;;
77085;SDS011;66014;53.134;18.006;2023-10-09T11:32:16;7.50;;;3.40;;
77085;SDS011;66014;53.134;18.006;2023-10-09T11:34:44;6.80;;;3.20;;
77085;SDS011;66014;53.134;18.006;2023-10-09T11:37:21;6.20;;;2.80;;
77085;SDS011;66014;53.134;18.006;2023-10-09T11:39:59;5.90;;;3.90;;
77085;SDS011;66014;53.134;18.006;2023-10-09T11:42:27;6.80;;;4.10;;
77085;SDS011;66014;53.134;18.006;2023-10-09T11:47:58;8.60;;;3.40;;
77085;SDS011;66014;53.134;18.006;2023-10-09T11:50:51;6.60;;;3.70;;
77085;SDS011;66014;53.134;18.006;2023-10-09T11:53:40;7.80;;;3.90;;
77085;SDS011;66014;53.134;18.006;2023-10-09T11:56:09;9.70;;;3.60;;
77085;SDS011;66014;53.134;18.006;2023-10-09T11:58:40;8.00;;;3.20;;
77085;SDS011;66014;53.134;18.006;2023-10-09T12:01:12;5.40;;;2.50;;
77085;SDS011;66014;53.134;18.006;2023-10-09T12:03:43;7.50;;;3.50;;
77085;SDS011;66014;53.134;18.006;2023-10-09T12:06:19;6.40;;;3.00;;
77085;SDS011;66014;53.134;18.006;2023-10-09T12:08:50;6.00;;;2.50;;
77085;SDS011;66014;53.134;18.006;2023-10-09T12:11:19;7.40;;;3.10;;
77085;SDS011;66014;53.134;18.006;2023-10-09T12:13:48;5.70;;;3.00;;
77085;SDS011;66014;53.134;18.006;2023-10-09T12:16:14;4.80;;;2.40;;
77085;SDS011;66014;53.134;18.006;2023-10-09T12:18:42;3.50;;;2.10;;
77085;SDS011;66014;53.134;18.006;2023-10-09T12:21:10;5.70;;;2.90;;
77085;SDS011;66014;53.134;18.006;2023-10-09T12:23:44;4.20;;;1.90;;
77085;SDS011;66014;53.134;18.006;2023-10-09T12:26:13;4.80;;;2.00;;
77085;SDS011;66014;53.134;18.006;2023-10-09T12:28:41;4.10;;;1.60;;
77085;SDS011;66014;53.134;18.006;2023-10-09T12:31:15;4.80;;;2.10;;
77085;SDS011;66014;53.134;18.006;2023-10-09T12:33:45;4.00;;;1.40;;
77085;SDS011;66014;53.134;18.006;2023-10-09T12:36:13;3.80;;;1.50;;
77085;SDS011;66014;53.134;18.006;2023-10-09T12:38:48;4.30;;;2.00;;
77085;SDS011;66014;53.134;18.006;2023-10-09T12:41:24;3.40;;;1.70;;
77085;SDS011;66014;53.134;18.006;2023-10-09T12:43:59;4.90;;;2.20;;
77085;SDS011;66014;53.134;18.006;2023-10-09T12:46:25;4.10;;;1.70;;
77085;SDS011;66014;53.134;18.006;2023-10-09T12:48:52;4.40;;;2.20;;
77085;SDS011;66014;53.134;18.006;2023-10-09T12:51:20;3.10;;;1.70;;
77085;SDS011;66014;53.134;18.006;2023-10-09T12:53:51;7.20;;;2.30;;
77085;SDS011;66014;53.134;18.006;2023-10-09T12:56:23;5.60;;;2.20;;
77085;SDS011;66014;53.134;18.006;2023-10-09T12:59:02;7.40;;;3.00;;
77085;SDS011;66014;53.134;18.006;2023-10-09T13:01:33;6.40;;;3.40;;
77085;SDS011;66014;53.134;18.006;2023-10-09T13:04:12;7.70;;;3.60;;
77085;SDS011;66014;53.134;18.006;2023-10-09T13:06:42;7.00;;;2.50;;
77085;SDS011;66014;53.134;18.006;2023-10-09T13:09:14;4.00;;;2.10;;
77085;SDS011;66014;53.134;18.006;2023-10-09T13:11:50;5.10;;;1.90;;
77085;SDS011;66014;53.134;18.006;2023-10-09T13:14:16;3.60;;;1.50;;
77085;SDS011;66014;53.134;18.006;2023-10-09T13:16:43;4.50;;;1.70;;
77085;SDS011;66014;53.134;18.006;2023-10-09T13:19:09;5.10;;;2.00;;
77085;SDS011;66014;53.134;18.006;2023-10-09T13:21:38;3.30;;;1.60;;
77085;SDS011;66014;53.134;18.006;2023-10-09T13:24:09;5.30;;;1.80;;
77085;SDS011;66014;53.134;18.006;2023-10-09T13:26:49;8.80;;;1.70;;
77085;SDS011;66014;53.134;18.006;2023-10-09T13:29:30;3.60;;;1.60;;
77085;SDS011;66014;53.134;18.006;2023-10-09T13:31:59;5.00;;;1.70;;
77085;SDS011;66014;53.134;18.006;2023-10-09T13:34:28;4.90;;;1.90;;
77085;SDS011;66014;53.134;18.006;2023-10-09T13:36:54;5.80;;;1.90;;
77085;SDS011;66014;53.134;18.006;2023-10-09T13:39:21;5.80;;;1.70;;
77085;SDS011;66014;53.134;18.006;2023-10-09T13:41:56;5.20;;;1.90;;
77085;SDS011;66014;53.134;18.006;2023-10-09T13:44:24;4.30;;;1.40;;
77085;SDS011;66014;53.134;18.006;2023-10-09T13:46:55;6.10;;;2.70;;
77085;SDS011;66014;53.134;18.006;2023-10-09T13:49:23;7.70;;;3.30;;
77085;SDS011;66014;53.134;18.006;2023-10-09T13:51:55;5.40;;;2.30;;
77085;SDS011;66014;53.134;18.006;2023-10-09T13:54:22;4.40;;;2.20;;
77085;SDS011;66014;53.134;18.006;2023-10-09T13:56:58;5.60;;;2.20;;
77085;SDS011;66014;53.134;18.006;2023-10-09T13:59:30;5.20;;;2.50;;
77085;SDS011;66014;53.134;18.006;2023-10-09T14:01:56;4.40;;;2.50;;
77085;SDS011;66014;53.134;18.006;2023-10-09T14:04:25;3.90;;;1.90;;
77085;SDS011;66014;53.134;18.006;2023-10-09T14:06:54;5.20;;;1.60;;
77085;SDS011;66014;53.134;18.006;2023-10-09T14:09:24;10.00;;;3.40;;
77085;SDS011;66014;53.134;18.006;2023-10-09T14:11:54;4.10;;;1.80;;
77085;SDS011;66014;53.134;18.006;2023-10-09T14:14:35;4.10;;;1.70;;
77085;SDS011;66014;53.134;18.006;2023-10-09T14:17:15;3.70;;;1.70;;
77085;SDS011;66014;53.134;18.006;2023-10-09T14:19:49;3.20;;;1.50;;
77085;SDS011;66014;53.134;18.006;2023-10-09T14:22:24;5.10;;;1.90;;
77085;SDS011;66014;53.134;18.006;2023-10-09T14:24:52;4.10;;;1.90;;
77085;SDS011;66014;53.134;18.006;2023-10-09T14:27:24;4.30;;;1.50;;
77085;SDS011;66014;53.134;18.006;2023-10-09T14:32:23;4.60;;;1.90;;
77085;SDS011;66014;53.134;18.006;2023-10-09T14:35:00;4.40;;;2.00;;
77085;SDS011;66014;53.134;18.006;2023-10-09T14:37:26;5.50;;;2.20;;
77085;SDS011;66014;53.134;18.006;2023-10-09T14:39:53;6.60;;;2.50;;
77085;SDS011;66014;53.134;18.006;2023-10-09T14:42:21;5.40;;;2.20;;
77085;SDS011;66014;53.134;18.006;2023-10-09T14:44:49;4.80;;;2.10;;
77085;SDS011;66014;53.134;18.006;2023-10-09T14:47:16;7.20;;;3.00;;
77085;SDS011;66014;53.134;18.006;2023-10-09T14:49:47;9.30;;;3.70;;
77085;SDS011;66014;53.134;18.006;2023-10-09T14:52:16;5.70;;;2.80;;
77085;SDS011;66014;53.134;18.006;2023-10-09T14:54:42;31.50;;;12.60;;
77085;SDS011;66014;53.134;18.006;2023-10-09T14:57:10;19.50;;;7.80;;
77085;SDS011;66014;53.134;18.006;2023-10-09T14:59:37;14.00;;;5.70;;
77085;SDS011;66014;53.134;18.006;2023-10-09T15:02:04;8.80;;;3.50;;
77085;SDS011;66014;53.134;18.006;2023-10-09T15:04:31;7.40;;;2.60;;
77085;SDS011;66014;53.134;18.006;2023-10-09T15:09:27;7.30;;;3.40;;
77085;SDS011;66014;53.134;18.006;2023-10-09T15:11:56;6.10;;;2.20;;
77085;SDS011;66014;53.134;18.006;2023-10-09T15:14:23;6.00;;;3.10;;
77085;SDS011;66014;53.134;18.006;2023-10-09T15:16:49;12.50;;;4.40;;
77085;SDS011;66014;53.134;18.006;2023-10-09T15:19:15;11.50;;;5.50;;
77085;SDS011;66014;53.134;18.006;2023-10-09T15:21:42;11.70;;;5.60;;
77085;SDS011;66014;53.134;18.006;2023-10-09T15:24:12;8.50;;;3.90;;
77085;SDS011;66014;53.134;18.006;2023-10-09T15:29:08;7.40;;;3.20;;
77085;SDS011;66014;53.134;18.006;2023-10-09T15:31:35;4.60;;;2.20;;
77085;SDS011;66014;53.134;18.006;2023-10-09T15:34:02;6.40;;;3.30;;
77085;SDS011;66014;53.134;18.006;2023-10-09T15:36:36;8.00;;;3.60;;
77085;SDS011;66014;53.134;18.006;2023-10-09T15:39:02;9.70;;;3.70;;
77085;SDS011;66014;53.134;18.006;2023-10-09T15:41:29;9.10;;;3.70;;
77085;SDS011;66014;53.134;18.006;2023-10-09T15:43:56;8.10;;;3.60;;
77085;SDS011;66014;53.134;18.006;2023-10-09T15:46:22;8.00;;;4.30;;
77085;SDS011;66014;53.134;18.006;2023-10-09T15:48:48;11.00;;;5.20;;
77085;SDS011;66014;53.134;18.006;2023-10-09T15:51:16;40.30;;;19.50;;
77085;SDS011;66014;53.134;18.006;2023-10-09T15:53:43;31.10;;;14.50;;
77085;SDS011;66014;53.134;18.006;2023-10-09T15:56:10;21.80;;;9.80;;
77085;SDS011;66014;53.134;18.006;2023-10-09T15:58:40;19.30;;;9.50;;
77085;SDS011;66014;53.134;18.006;2023-10-09T16:01:10;27.50;;;12.00;;
77085;SDS011;66014;53.134;18.006;2023-10-09T16:03:41;23.30;;;12.60;;
77085;SDS011;66014;53.134;18.006;2023-10-09T16:06:09;19.50;;;9.80;;
77085;SDS011;66014;53.134;18.006;2023-10-09T16:08:37;19.60;;;10.60;;
77085;SDS011;66014;53.134;18.006;2023-10-09T16:11:16;17.20;;;10.60;;
77085;SDS011;66014;53.134;18.006;2023-10-09T16:13:44;26.20;;;13.40;;
77085;SDS011;66014;53.134;18.006;2023-10-09T16:16:09;26.30;;;12.90;;
77085;SDS011;66014;53.134;18.006;2023-10-09T16:18:39;26.70;;;12.90;;
77085;SDS011;66014;53.134;18.006;2023-10-09T16:21:05;40.40;;;18.60;;
77085;SDS011;66014;53.134;18.006;2023-10-09T16:23:33;23.10;;;12.50;;
77085;SDS011;66014;53.134;18.006;2023-10-09T16:25:59;16.50;;;9.10;;
77085;SDS011;66014;53.134;18.006;2023-10-09T16:28:26;16.00;;;8.60;;
77085;SDS011;66014;53.134;18.006;2023-10-09T16:30:53;14.30;;;7.30;;